Weather at Brno-Tuřany Airport

Public forecast

Using degrees Celsius for public forecast. Weather courtesy of forecast.io.

Current aviation weather report (METAR) for Brno-Tuřany Airport

Retrieved 2021/10/15 22:30 UTC (0 seconds ago):

LKTB 152230Z 02002KT CAVOK 09/06 Q1018 NOSIG

Aviation forecast (TAF) for Brno-Tuřany Airport

Retrieved 2021/10/15 18:15 UTC (4 hours ago):

TAF LKTB 151700Z 1518/1700 18006KT 9999 SCT035 TEMPO 1518/1521 BKN025 BECMG 1521/1600 34007KT